Ofira, Ägypten

04:08 PM EET am 20. Januar 2017 (GMT +0200)
Hadaba, old harbour bay view | | Change Station

Höhe 112 ft 27.87 °N, 34.30 °E | Updated 6 minutes ago

Teils Wolkig
Teils Wolkig
73.2 °F
gefühlte 77 °F
N
0.0
Wind Wechselnd Wind aus Südost
Gusts 1.8 mph

Heute
Max. -- | schwach -- °F
--% Regenrisiko
Gestern
Max. -- | schwach -- °F
Precip. -- inch
Druck 30.01 inch
Sichtweite -9999.0 Meilen
Wolken
Hitzeindex 77 °F
Taupunkt 52 °F
Feuchtigkeit 48%
Regen 0.00 inch
Schneehöhe Nicht verfügbar..
6:34 AM 5:13 PM
Letztes Viertel, 44% visible
METAR HETR 201300Z 30016KT CAVOK 20/12 Q1016
Druck 30.01 inch
Sichtweite -9999.0 Meilen
Wolken
Hitzeindex 77 °F
Taupunkt 52 °F
Feuchtigkeit 48%
Regen 0.00 inch
Schneehöhe Nicht verfügbar..
6:34 AM 5:13 PM
Letztes Viertel, 44% visible
METAR HETR 201300Z 30016KT CAVOK 20/12 Q1016

Get Your Daily Forecast Email!

Thanks for signing up!

Be on the lookout for a verification email in your inbox.

You'll start receiving the daily forecast at 8 AM.

×

10-Day Weather Forecast

No radar image for this location.
×

Almanac

Astronomie

Jan. 20, 2017 Aufgang Untergang
Genaue Zeit
Bürgerliche Dämmerung
Nautische Dämmerung
Astronomische Dämmerung
Mond
Länge des sichtbaren Lichts
Tageslänge
Tomorrow will be .
, % of the Moon is Illuminated

Heutige Rekorde

Country Highs Country Lows

Community

WunderPhotos

Upload Photos

1,962,540 Fotos hochgeladen!

WunderBlog® & News

Nearby

Luftqualität

  Luftqualität LQ Index Schadstoff
Not available.

Schneehöhe

Station Depth Höhe

Erdbebenaktivität

Stadt Distance Mag. Time & Date
Minimum magnitude displayed is 2.5.

küstennahe Wassertemperaturen

Ort Temperatur

Stations

Wetterstationen in der Umgebung

Stationsstandort Temp. Windchill Taupunkt Feuchtigkeit Wind Precip. Höhe Aktualisiert Art